EW7496 Madison NJ US current weather conditions

sailwx.info

Wind from 315 at 4 knots gusting 8

Air temperature 3.3° C
Dewpoint -2.4° C

Last reported at 2020-Jan-28 23:00 UTC.
Time now 2020-Jan-28 23:33 UTC

Location: N 40°45' W 074°24'.
View on Google Maps.

See reports from other nearby stations

  
Tides and Currents Weather Stations Pressure Air Temp Water Temp Dewpoint Dewpoint Depression Visibility Wind Speed Wind Dir Waves Ship Positions
date/time (UTC)wind fromknots sea level pressurealtimeterstation pressurevisibilityair tempwater tempwave heightnotes
2020-Jan-28 23:00 315 4 gusting 8 3.3
2020-Jan-28 22:50 315 4 gusting 7 3.3
2020-Jan-28 22:40 292 1 gusting 3 3.3
2020-Jan-28 22:30 292 2 gusting 6 3.9
2020-Jan-28 22:20 315 1 gusting 6 3.9
2020-Jan-28 22:10 292 1 gusting 3 3.9
2020-Jan-28 22:00 292 2 gusting 5 3.9
2020-Jan-28 21:50 270 1 gusting 7 3.9
2020-Jan-28 21:40 315 0 gusting 3 3.9
2020-Jan-28 21:30 247 1 gusting 4 3.9
2020-Jan-28 21:20 270 2 gusting 6 3.9
2020-Jan-28 21:10 292 2 gusting 6 3.9
2020-Jan-28 21:00 292 2 gusting 6 3.9
2020-Jan-28 20:50 292 4 gusting 8 3.9
2020-Jan-28 20:40 292 1 gusting 3 3.9
2020-Jan-28 20:30 292 3 gusting 12 3.9
2020-Jan-28 20:20 292 3 gusting 8 3.9
2020-Jan-28 20:10 292 4 gusting 7 3.9
2020-Jan-28 20:00 292 2 gusting 7 3.9
2020-Jan-28 19:50 292 1 gusting 3 3.9
2020-Jan-28 19:40 270 2 gusting 7 3.9
2020-Jan-28 19:30 315 4 gusting 8 3.9
2020-Jan-28 19:20 292 2 gusting 6 4.4
2020-Jan-28 19:10 315 4 gusting 10 3.9
2020-Jan-28 19:00 292 4 gusting 10 4.4
2020-Jan-28 18:50 270 4 gusting 10 4.4
2020-Jan-28 18:40 292 3 gusting 9 4.4
2020-Jan-28 18:30 292 4 gusting 8 4.4
2020-Jan-28 18:20 315 3 gusting 7 5.0
2020-Jan-28 18:10 315 4 gusting 11 5.0
2020-Jan-28 18:00 315 4 gusting 10 5.6
2020-Jan-28 17:50 292 5 gusting 11 5.6
2020-Jan-28 17:40 270 5 gusting 9 5.6
2020-Jan-28 17:30 292 3 gusting 9 5.6
2020-Jan-28 17:20 292 6 gusting 12 5.6
2020-Jan-28 17:10 270 4 gusting 13 5.6
2020-Jan-28 17:00 292 5 gusting 11 5.6
2020-Jan-28 16:50 315 4 gusting 9 5.6
2020-Jan-28 16:40 292 3 gusting 9 5.6
2020-Jan-28 16:30 315 3 gusting 6 5.6
2020-Jan-28 16:20 292 3 gusting 9 5.6
2020-Jan-28 16:10 315 3 gusting 9 5.0
2020-Jan-28 16:00 315 3 gusting 11 5.0
2020-Jan-28 15:50 315 3 gusting 7 4.4
2020-Jan-28 15:40 315 5 gusting 9 4.4
2020-Jan-28 15:30 315 3 gusting 6 4.4
2020-Jan-28 15:20 270 2 gusting 6 4.4
2020-Jan-28 15:10 292 4 gusting 10 3.9
2020-Jan-28 15:00 315 3 gusting 7 3.9
2020-Jan-28 14:50 315 3 gusting 9 3.3
2020-Jan-28 14:40 315 2 gusting 6 3.3
2020-Jan-28 14:30 292 3 gusting 6 2.8
2020-Jan-28 14:20 315 2 gusting 8 2.8
2020-Jan-28 14:10 270 1 gusting 3 2.8
2020-Jan-28 14:00 270 2 gusting 3 2.2
2020-Jan-28 13:50 292 1 gusting 3 2.2
2020-Jan-28 13:40 270 1 gusting 5 2.2
2020-Jan-28 13:30 337 1 gusting 3 2.2
2020-Jan-28 13:20 292 1 gusting 2 1.7
2020-Jan-28 13:10 315 1 gusting 5 1.7
2020-Jan-28 13:00 292 0 gusting 1 1.7
2020-Jan-28 12:50 337 1 gusting 3 1.7
2020-Jan-28 12:40 247 0 gusting 2 1.7
2020-Jan-28 12:30 337 0 gusting 4 1.7
2020-Jan-28 12:20 315 0 gusting 1 1.7
2020-Jan-28 12:10 337 0 gusting 1 1.7
2020-Jan-28 12:00 225 0 gusting 4 1.7
2020-Jan-28 11:50 315 0 gusting 2 1.7
2020-Jan-28 11:40 315 1 gusting 2 2.2
2020-Jan-28 11:30 337 1 gusting 4 1.7
2020-Jan-28 11:20 292 1 gusting 5 1.7
2020-Jan-28 11:10 315 3 gusting 7 1.7
2020-Jan-28 11:00 292 1 gusting 4 2.2
2020-Jan-28 10:50 292 1 gusting 3 2.2
2020-Jan-28 10:40 292 2 gusting 6 2.2
2020-Jan-28 10:30 292 2 gusting 6 2.2
2020-Jan-28 10:20 315 2 gusting 7 2.2
2020-Jan-28 10:10 315 2 gusting 7 2.2
2020-Jan-28 10:00 315 2 gusting 10 2.2
2020-Jan-28 09:50 337 1 gusting 5 2.2
2020-Jan-28 09:40 315 2 gusting 7 2.2
2020-Jan-28 09:30 292 1 gusting 3 2.2
2020-Jan-28 09:20 315 2 gusting 7 2.2
2020-Jan-28 09:10 292 1 gusting 3 2.2
2020-Jan-28 09:00 315 0 gusting 3 2.2
2020-Jan-28 08:50 292 0 gusting 3 2.2
2020-Jan-28 08:40 315 0 gusting 2 2.2
2020-Jan-28 08:30 315 1 gusting 6 2.2
2020-Jan-28 08:20 292 1 gusting 4 2.8
2020-Jan-28 08:10 292 2 gusting 5 2.8
2020-Jan-28 08:00 337 1 gusting 4 2.8
2020-Jan-28 07:50 337 0 gusting 2 2.8
2020-Jan-28 07:40 292 1 gusting 3 2.8
2020-Jan-28 07:30 315 2 gusting 5 2.8
2020-Jan-28 07:20 292 1 gusting 4 2.8
2020-Jan-28 07:10 270 0 gusting 2 2.8
2020-Jan-28 07:00 292 0 gusting 2 2.8
2020-Jan-28 06:50 315 1 gusting 4 2.8
2020-Jan-28 06:40 292 1 gusting 4 2.8
2020-Jan-28 06:30 292 1 gusting 5 2.8
2020-Jan-28 06:20 292 2 gusting 7 2.8
2020-Jan-28 06:10 315 2 gusting 6 2.8
2020-Jan-28 06:00 315 1 gusting 2 2.8
2020-Jan-28 05:50 292 1 gusting 4 2.8
2020-Jan-28 05:40 337 1 gusting 3 3.3
2020-Jan-28 05:30 292 2 gusting 6 3.3
2020-Jan-28 05:20 270 1 gusting 3 3.3
2020-Jan-28 05:10 315 2 gusting 5 3.3
2020-Jan-28 05:00 315 1 gusting 3 3.3
2020-Jan-28 04:50 292 3 gusting 8 3.3
2020-Jan-28 04:40 315 1 gusting 3 3.3
2020-Jan-28 04:30 292 1 gusting 3 3.3
2020-Jan-28 04:20 270 1 gusting 5 3.3
2020-Jan-28 04:10 315 2 gusting 4 3.3
2020-Jan-28 04:00 292 2 gusting 6 3.9
2020-Jan-28 03:50 292 2 gusting 6 3.9
2020-Jan-28 03:40 292 2 gusting 3 3.9
2020-Jan-28 03:30 315 1 gusting 3 3.9
2020-Jan-28 03:20 292 1 gusting 3 3.9
2020-Jan-28 03:10 337 0 gusting 3 3.9
2020-Jan-28 03:00 3.9
2020-Jan-28 02:50 337 0 gusting 1 3.9
2020-Jan-28 02:40 337 0 gusting 2 3.9
2020-Jan-28 02:30 225 0 gusting 1 3.9
2020-Jan-28 02:20 3.9
2020-Jan-28 02:10 4.4
2020-Jan-28 02:00 225 0 gusting 2 4.4
2020-Jan-28 01:50 4.4
2020-Jan-28 01:40 4.4
2020-Jan-28 01:30 4.4
2020-Jan-28 01:20 4.4
2020-Jan-28 01:10 270 0 gusting 2 4.4
2020-Jan-28 01:00 270 0 gusting 1 4.4
2020-Jan-28 00:50 4.4
2020-Jan-28 00:40 4.4
2020-Jan-28 00:30 5.0
2020-Jan-28 00:20 270 0 gusting 1 5.0
2020-Jan-28 00:10 270 0 gusting 1 5.0
2020-Jan-28 00:00 270 0 gusting 1 5.0
2020-Jan-27 23:50 5.0
2020-Jan-27 23:40 5.0
2020-Jan-27 23:30 5.0
2020-Jan-27 23:20 5.0
2020-Jan-27 23:10 5.0
2020-Jan-27 23:00 292 0 gusting 1 5.6
2020-Jan-27 22:50 315 1 gusting 2 5.6
2020-Jan-27 22:40 315 0 gusting 1 5.6
2020-Jan-27 22:30 315 1 gusting 4 5.6
2020-Jan-27 22:20 292 0 gusting 2 5.6
2020-Jan-27 22:10 292 1 gusting 2 5.6
2020-Jan-27 22:00 292 1 gusting 4 6.1
2020-Jan-27 21:50 292 2 gusting 6 6.1
2020-Jan-27 21:40 315 2 gusting 7 6.1
2020-Jan-27 21:30 292 1 gusting 3 6.7
2020-Jan-27 21:20 292 2 gusting 6 6.7
2020-Jan-27 21:10 270 2 gusting 6 6.7
2020-Jan-27 21:00 315 1 gusting 3 7.2
2020-Jan-27 20:50 292 2 gusting 6 7.2
2020-Jan-27 20:40 225 1 gusting 3 6.7
2020-Jan-27 20:30 202 2 gusting 6 6.7
2020-Jan-27 20:20 270 2 gusting 5 6.7
2020-Jan-27 20:10 292 2 gusting 7 6.7
2020-Jan-27 20:00 315 2 gusting 9 6.7
2020-Jan-27 19:50 292 2 gusting 8 6.7
2020-Jan-27 19:40 315 2 gusting 6 6.7
2020-Jan-27 19:30 315 2 gusting 6 6.7
2020-Jan-27 19:20 292 3 gusting 7 6.7
2020-Jan-27 19:10 315 2 gusting 6 6.1
2020-Jan-27 19:00 292 1 gusting 3 6.1
2020-Jan-27 18:50 315 1 gusting 3 6.1
2020-Jan-27 18:40 225 1 gusting 5 6.1
2020-Jan-27 18:30 225 1 gusting 8 6.1
2020-Jan-27 18:20 202 0 gusting 4 6.1
2020-Jan-27 18:10 292 2 gusting 6 6.1
2020-Jan-27 18:00 202 1 gusting 3 6.1
2020-Jan-27 17:50 225 1 gusting 3 6.1
2020-Jan-27 17:40 202 2 gusting 5 6.1
2020-Jan-27 17:30 247 1 gusting 3 6.1
2020-Jan-27 17:20 247 2 gusting 6 5.6
2020-Jan-27 17:10 202 1 gusting 7 5.6
2020-Jan-27 17:00 202 0 gusting 2 5.6
2020-Jan-27 16:50 247 1 gusting 3 5.0
2020-Jan-27 16:40 202 2 gusting 6 5.0
2020-Jan-27 16:30 225 1 gusting 5 5.0
2020-Jan-27 16:20 202 1 gusting 5 5.0
2020-Jan-27 16:10 225 2 gusting 6 5.0
2020-Jan-27 16:00 225 2 gusting 7 5.0
2020-Jan-27 15:50 225 1 gusting 6 4.4
2020-Jan-27 15:40 247 2 gusting 6 4.4
2020-Jan-27 15:30 247 1 gusting 3 3.9
2020-Jan-27 15:20 202 2 gusting 5 3.3
2020-Jan-27 15:10 202 1 gusting 4 3.3
2020-Jan-27 15:00 202 1 gusting 3 3.3
2020-Jan-27 14:50 180 1 gusting 5 2.8
2020-Jan-27 14:40 225 1 gusting 4 2.8
2020-Jan-27 14:30 247 1 gusting 3 2.8
2020-Jan-27 14:20 202 0 gusting 2 2.2
2020-Jan-27 14:10 180 0 gusting 3 2.2
2020-Jan-27 14:00 180 1 gusting 3 2.2
2020-Jan-27 13:50 202 0 gusting 3 1.7
2020-Jan-27 13:40 225 1 gusting 4 1.7
2020-Jan-27 13:30 225 0 gusting 2 1.7
2020-Jan-27 13:20 202 0 gusting 2 1.7
2020-Jan-27 13:10 202 0 gusting 3 1.7
2020-Jan-27 13:00 180 0 gusting 3 1.7
2020-Jan-27 12:50 180 1 gusting 5 1.7
2020-Jan-27 12:40 202 1 gusting 3 1.7
2020-Jan-27 12:30 202 1 gusting 5 1.1
2020-Jan-27 12:20 202 1 gusting 5 1.1
2020-Jan-27 12:10 202 1 gusting 5 1.1
2020-Jan-27 12:00 202 1 gusting 3 1.1
2020-Jan-27 11:50 157 0 gusting 3 1.1
2020-Jan-27 11:40 225 0 gusting 2 1.1
2020-Jan-27 11:30 202 0 gusting 2 1.1
2020-Jan-27 11:20 202 1 gusting 3 1.1
2020-Jan-27 11:10 180 0 gusting 3 1.1
2020-Jan-27 11:00 202 0 gusting 6 1.1
2020-Jan-27 10:50 202 0 gusting 4 1.1
2020-Jan-27 10:40 202 0 gusting 4 1.1
2020-Jan-27 10:30 202 1 gusting 4 1.1
2020-Jan-27 10:20 202 0 gusting 2 1.1
2020-Jan-27 10:10 202 1 gusting 3 1.1
2020-Jan-27 10:00 202 0 gusting 3 1.1
2020-Jan-27 09:50 225 1 gusting 3 1.1
2020-Jan-27 09:40 202 0 gusting 2 1.1
2020-Jan-27 09:30 157 0 gusting 3 1.1
2020-Jan-27 09:20 202 1 gusting 4 1.1
2020-Jan-27 09:10 202 1 gusting 5 1.1
2020-Jan-27 09:00 202 1 gusting 7 1.1
2020-Jan-27 08:50 225 1 gusting 3 1.1
2020-Jan-27 08:40 225 1 gusting 4 1.1
2020-Jan-27 08:30 225 0 gusting 2 0.6
2020-Jan-27 08:20 0.6
2020-Jan-27 08:10 0.6
2020-Jan-27 08:00 225 1 gusting 2 0.6
2020-Jan-27 07:50 225 0 gusting 1 0.6
2020-Jan-27 07:40 0.6
2020-Jan-27 07:30 0.6
2020-Jan-27 07:20 180 0 gusting 1 0.6
2020-Jan-27 07:10 202 0 gusting 1 0.6
2020-Jan-27 07:00 202 0 gusting 2 0.6
2020-Jan-27 06:50 225 0 gusting 2 0.6
2020-Jan-27 06:40 202 0 gusting 2 0.6
2020-Jan-27 06:30 202 1 gusting 3 0.6
2020-Jan-27 06:20 225 0 gusting 2 -0.0
2020-Jan-27 06:10 225 0 gusting 1 -0.0
2020-Jan-27 06:00 225 0 gusting 2 -0.0
2020-Jan-27 05:50 225 0 gusting 1 0.6
2020-Jan-27 05:40 0.6
2020-Jan-27 05:30 0.6
2020-Jan-27 05:20 0.6
2020-Jan-27 05:10 225 0 gusting 1 0.6
2020-Jan-27 05:00 225 0 gusting 1 0.6
2020-Jan-27 04:50 225 0 gusting 1 1.1
2020-Jan-27 04:40 225 0 gusting 1 1.1
2020-Jan-27 04:30 225 0 gusting 1 1.1
2020-Jan-27 04:20 225 0 gusting 2 1.1
2020-Jan-27 04:10 225 0 gusting 3 1.1
2020-Jan-27 04:00 225 0 gusting 1 1.7
2020-Jan-27 03:50 225 0 gusting 1 1.7
2020-Jan-27 03:40 225 0 gusting 1 1.7
2020-Jan-27 03:30 225 0 gusting 2 1.7
2020-Jan-27 03:20 225 1 gusting 3 1.7
2020-Jan-27 03:10 225 1 gusting 3 1.7
2020-Jan-27 03:00 202 0 gusting 3 1.7
2020-Jan-27 02:50 202 1 gusting 3 1.7
2020-Jan-27 02:40 202 1 gusting 2 1.7
2020-Jan-27 02:30 202 0 gusting 1 1.7
2020-Jan-27 02:20 225 0 gusting 2 2.2
2020-Jan-27 02:10 225 0 gusting 1 2.2
2020-Jan-27 02:00 225 0 gusting 1 2.2
2020-Jan-27 01:50 225 0 gusting 1 2.2
2020-Jan-27 01:40 225 1 gusting 3 2.8
2020-Jan-27 01:30 247 0 gusting 2 2.8
2020-Jan-27 01:20 225 1 gusting 4 2.8
2020-Jan-27 01:10 225 2 gusting 4 2.8
2020-Jan-27 01:00 225 1 gusting 3 2.8
2020-Jan-27 00:50 225 0 gusting 1 2.8
2020-Jan-27 00:40 225 0 gusting 1 3.3
2020-Jan-27 00:30 225 0 gusting 1 3.3
2020-Jan-27 00:20 225 0 gusting 1 3.3
2020-Jan-27 00:10 225 1 gusting 3 3.9
2020-Jan-27 00:00 225 0 gusting 3 3.9
2020-Jan-26 23:50 225 1 gusting 3 4.4
2020-Jan-26 23:40 225 2 gusting 4 4.4
2020-Jan-26 23:30 225 0 gusting 2 4.4
2020-Jan-26 23:20 225 1 gusting 4 4.4
2020-Jan-26 23:10 202 1 gusting 3 5.0
2020-Jan-26 23:00 225 0 gusting 2 5.0